SCC weather

Deadhorse Airport
Deadhorse, Alaska, United States

Public forecast

Using degrees Fahrenheit for public forecast. Weather courtesy of forecast.io.

Current aviation weather report (METAR) for Deadhorse Airport

Retrieved 2019/10/15 19:53 UTC (26 minutes ago):

PASC 151953Z 10009KT 10SM CLR M04/M06 A2968

Aviation forecast (TAF) for Deadhorse Airport

Retrieved 2019/10/15 18:27 UTC (2 hours ago):

TAF COR PASC 151721Z 1518/1618 09008KT P6SM SKC TEMPO 1518/1520 BKN011 FM160300 08012KT 5SM BR SCT200 FM160900 10011KT 2SM BR SCT200 FM161100 10012KT 5SM BR SCT200 FM161300 10014KT 1 1/2SM BR FEW200